createdAt,value
2023-04-07T00:02:04.460Z,46.50
2023-04-07T00:06:07.316Z,47.20
2023-04-07T00:10:10.322Z,47.40
2023-04-07T00:14:13.109Z,47.50
2023-04-07T00:18:15.827Z,47.50
2023-04-07T00:22:18.367Z,47.90
2023-04-07T00:26:21.268Z,48.10
2023-04-07T00:30:23.882Z,47.90
2023-04-07T00:34:26.485Z,47.50
2023-04-07T00:38:29.171Z,47.40
2023-04-07T00:42:33.642Z,47.30
2023-04-07T00:46:36.345Z,47.50
2023-04-07T00:50:39.018Z,48.20
2023-04-07T00:54:42.425Z,48.50
2023-04-07T00:58:45.015Z,48.50
2023-04-07T01:02:57.965Z,48.70
2023-04-07T01:07:07.427Z,49.00
2023-04-07T01:11:25.237Z,49.00
2023-04-07T01:15:31.352Z,48.90
2023-04-07T01:20:08.018Z,48.80
2023-04-07T01:24:30.871Z,48.90
2023-04-07T01:28:44.956Z,49.10
2023-04-07T01:32:51.470Z,49.60
2023-04-07T01:36:55.914Z,50.40
2023-04-07T01:40:59.288Z,50.50
2023-04-07T01:45:02.389Z,50.40
2023-04-07T01:49:06.028Z,50.80
2023-04-07T01:53:08.896Z,51.20
2023-04-07T01:57:11.456Z,52.20
2023-04-07T02:01:14.577Z,51.60
2023-04-07T02:05:19.490Z,51.20
2023-04-07T02:09:23.016Z,51.10
2023-04-07T02:13:26.430Z,51.10
2023-04-07T02:17:29.621Z,51.10
2023-04-07T02:21:33.476Z,51.30
2023-04-07T02:25:38.500Z,51.20
2023-04-07T02:29:41.336Z,51.20
2023-04-07T02:33:43.869Z,51.80
2023-04-07T02:37:48.188Z,51.60
2023-04-07T02:41:50.782Z,52.40
2023-04-07T02:45:53.427Z,52.90
2023-04-07T02:49:56.067Z,52.80
2023-04-07T02:53:58.624Z,53.30
2023-04-07T02:58:01.542Z,52.70
2023-04-07T03:02:22.040Z,52.30
2023-04-07T03:06:24.994Z,52.60
2023-04-07T03:10:44.066Z,53.30
2023-04-07T03:14:49.754Z,53.20
2023-04-07T03:18:52.686Z,52.90
2023-04-07T03:22:56.653Z,54.00
2023-04-07T03:27:03.625Z,54.60
2023-04-07T03:31:15.131Z,54.90
2023-04-07T03:35:18.057Z,54.80
2023-04-07T03:39:21.262Z,54.90
2023-04-07T03:43:26.661Z,55.40
2023-04-07T03:47:29.319Z,56.00
2023-04-07T03:51:36.179Z,56.20
2023-04-07T03:55:43.436Z,55.60
2023-04-07T03:59:56.318Z,55.30
2023-04-07T04:03:59.638Z,55.30
2023-04-07T04:08:05.422Z,55.10
2023-04-07T04:12:10.385Z,55.40
2023-04-07T04:16:19.314Z,55.30
2023-04-07T04:20:23.472Z,55.00
2023-04-07T04:24:27.634Z,54.80
2023-04-07T04:28:34.978Z,54.70
2023-04-07T04:32:39.788Z,54.50
2023-04-07T04:36:43.998Z,55.10
2023-04-07T04:40:47.692Z,55.10
2023-04-07T04:44:53.321Z,55.00
2023-04-07T04:48:58.031Z,55.60
2023-04-07T04:53:02.784Z,56.20
2023-04-07T04:57:06.720Z,57.50
2023-04-07T05:01:10.636Z,58.90
2023-04-07T05:05:18.085Z,58.70
2023-04-07T05:09:20.986Z,58.70
2023-04-07T05:13:25.895Z,59.00
2023-04-07T05:17:29.462Z,59.00
2023-04-07T05:21:35.176Z,58.50
2023-04-07T05:25:40.016Z,58.30
2023-04-07T05:29:44.200Z,58.10
2023-04-07T05:33:56.610Z,57.70
2023-04-07T05:38:03.192Z,57.40
2023-04-07T05:42:07.870Z,57.20
2023-04-07T05:46:13.095Z,57.60
2023-04-07T05:50:24.186Z,57.80
2023-04-07T05:54:27.794Z,58.80
2023-04-07T05:58:30.903Z,59.00
2023-04-07T06:02:34.569Z,58.50
2023-04-07T06:06:38.363Z,58.10
2023-04-07T06:10:41.816Z,57.90
2023-04-07T06:14:51.799Z,57.80
2023-04-07T06:18:54.541Z,58.40
2023-04-07T06:22:57.276Z,58.20
2023-04-07T06:27:01.474Z,57.90
2023-04-07T06:31:04.358Z,57.10
2023-04-07T06:35:07.450Z,56.60
2023-04-07T06:39:10.223Z,56.40
2023-04-07T06:43:12.985Z,56.10
2023-04-07T06:47:28.820Z,55.60
2023-04-07T06:51:32.490Z,55.00
2023-04-07T06:55:35.604Z,54.60
2023-04-07T06:59:39.085Z,54.50
2023-04-07T07:03:41.820Z,54.40
2023-04-07T07:07:44.575Z,54.30
2023-04-07T07:11:47.762Z,54.10
2023-04-07T07:15:52.166Z,53.80
2023-04-07T07:19:54.829Z,53.50
2023-04-07T07:23:57.596Z,53.00
2023-04-07T07:28:00.154Z,52.50
2023-04-07T07:32:03.057Z,52.20
2023-04-07T07:36:06.335Z,52.20
2023-04-07T07:40:09.179Z,52.10
2023-04-07T07:44:11.775Z,51.90
2023-04-07T07:48:14.469Z,51.60
2023-04-07T07:52:17.119Z,51.20
2023-04-07T07:56:19.730Z,50.90
2023-04-07T08:00:24.232Z,50.90
2023-04-07T08:04:26.886Z,50.80
2023-04-07T08:08:29.413Z,50.50
2023-04-07T08:12:31.970Z,50.00
2023-04-07T08:16:34.660Z,49.60
2023-04-07T08:20:37.370Z,49.40
2023-04-07T08:24:40.119Z,49.30
2023-04-07T08:28:42.762Z,49.10
2023-04-07T08:32:45.528Z,48.80
2023-04-07T08:36:48.342Z,47.40
2023-04-07T08:40:54.848Z,46.50
2023-04-07T08:45:00.199Z,46.60
2023-04-07T08:49:04.094Z,45.80
2023-04-07T08:53:08.243Z,44.50
2023-04-07T08:57:11.581Z,43.40
2023-04-07T09:01:14.608Z,42.60
2023-04-07T09:05:17.533Z,43.00
2023-04-07T09:09:20.029Z,42.20
2023-04-07T09:13:22.751Z,41.50
2023-04-07T09:17:26.378Z,40.10
2023-04-07T09:21:47.380Z,38.80
2023-04-07T09:25:50.087Z,38.70
2023-04-07T09:30:10.484Z,38.80
2023-04-07T09:34:37.014Z,38.20
2023-04-07T09:38:41.509Z,37.60
2023-04-07T09:42:48.310Z,37.60
2023-04-07T09:46:50.920Z,38.10
2023-04-07T09:51:05.093Z,38.30
2023-04-07T09:55:07.723Z,38.00
2023-04-07T09:59:11.125Z,38.00
2023-04-07T10:03:14.053Z,38.40
2023-04-07T10:07:17.058Z,38.60
2023-04-07T10:11:19.898Z,37.90
2023-04-07T10:15:23.165Z,37.00
2023-04-07T10:19:27.116Z,36.70
2023-04-07T10:23:29.754Z,35.60
2023-04-07T10:27:33.922Z,35.60
2023-04-07T10:31:38.143Z,35.60
2023-04-07T10:35:59.828Z,35.50
2023-04-07T10:40:21.780Z,35.80
2023-04-07T10:44:41.137Z,35.90
2023-04-07T10:49:03.676Z,35.40
2023-04-07T10:53:08.538Z,35.30
2023-04-07T10:57:15.917Z,34.90
2023-04-07T11:01:19.748Z,34.50
2023-04-07T11:05:23.148Z,34.60
2023-04-07T11:09:25.880Z,34.70
2023-04-07T11:13:28.554Z,34.40
2023-04-07T11:17:31.198Z,34.80
2023-04-07T11:21:33.982Z,34.70
2023-04-07T11:25:37.052Z,34.90
2023-04-07T11:29:39.827Z,33.80
2023-04-07T11:33:43.618Z,34.10
2023-04-07T11:37:46.254Z,34.10
2023-04-07T11:41:49.700Z,34.00
2023-04-07T11:46:09.065Z,33.90
2023-04-07T11:50:13.781Z,33.30
2023-04-07T11:54:17.223Z,32.70
2023-04-07T11:58:19.764Z,32.70
2023-04-07T12:02:32.761Z,31.30
2023-04-07T12:06:38.621Z,31.50
2023-04-07T12:10:41.772Z,29.80
2023-04-07T12:14:44.458Z,28.60
2023-04-07T12:18:47.122Z,29.20
2023-04-07T12:22:49.660Z,29.60
2023-04-07T12:26:52.407Z,30.00
2023-04-07T12:30:55.635Z,30.30
2023-04-07T12:34:59.374Z,30.50
2023-04-07T12:39:02.233Z,30.60
2023-04-07T12:43:05.938Z,30.70
2023-04-07T12:47:08.629Z,30.90
2023-04-07T12:51:11.201Z,30.90
2023-04-07T12:55:14.439Z,30.30
2023-04-07T12:59:17.061Z,30.80
2023-04-07T13:03:20.086Z,30.50
2023-04-07T13:07:22.962Z,30.80
2023-04-07T13:11:25.756Z,30.80
2023-04-07T13:15:29.117Z,29.80
2023-04-07T13:19:31.799Z,30.30
2023-04-07T13:23:42.759Z,30.70
2023-04-07T13:27:46.801Z,30.60
2023-04-07T13:31:49.629Z,30.10
2023-04-07T13:35:52.223Z,30.30
2023-04-07T13:39:54.830Z,30.00
2023-04-07T13:43:58.516Z,29.60
2023-04-07T13:48:01.097Z,29.20
2023-04-07T13:52:03.706Z,28.70
2023-04-07T13:56:08.536Z,28.90
2023-04-07T14:00:11.659Z,29.20
2023-04-07T14:04:14.491Z,29.30
2023-04-07T14:08:19.013Z,29.00
2023-04-07T14:12:22.469Z,29.30
2023-04-07T14:16:25.594Z,29.40
2023-04-07T14:20:28.273Z,29.50
2023-04-07T14:24:31.298Z,29.70
2023-04-07T14:28:33.963Z,29.80
2023-04-07T14:32:36.639Z,29.90
2023-04-07T14:36:39.150Z,30.00
2023-04-07T14:40:42.045Z,30.10
2023-04-07T14:44:44.725Z,30.10
2023-04-07T14:48:47.258Z,29.80
2023-04-07T14:52:50.345Z,29.20
2023-04-07T14:56:52.910Z,29.60
2023-04-07T15:00:55.507Z,29.70
2023-04-07T15:04:58.464Z,29.50
2023-04-07T15:09:01.164Z,29.30
2023-04-07T15:13:04.186Z,29.70
2023-04-07T15:17:06.701Z,29.60
2023-04-07T15:21:09.609Z,29.90
2023-04-07T15:25:12.307Z,29.90
2023-04-07T15:29:15.117Z,30.00
2023-04-07T15:33:18.065Z,30.30
2023-04-07T15:37:20.872Z,30.40
2023-04-07T15:41:23.585Z,30.60
2023-04-07T15:45:26.209Z,30.80
2023-04-07T15:49:28.803Z,31.20
2023-04-07T15:53:31.405Z,31.50
2023-04-07T15:57:34.046Z,31.90
2023-04-07T16:01:38.254Z,32.10
2023-04-07T16:05:40.998Z,32.30
2023-04-07T16:09:43.721Z,32.70
2023-04-07T16:13:46.987Z,33.00
2023-04-07T16:17:49.719Z,33.00
2023-04-07T16:21:52.627Z,33.20
2023-04-07T16:25:55.630Z,33.40
2023-04-07T16:29:58.235Z,33.50
2023-04-07T16:34:01.865Z,33.80
2023-04-07T16:38:06.329Z,34.60
2023-04-07T16:42:08.979Z,35.40
2023-04-07T16:46:11.839Z,36.00
2023-04-07T16:50:14.847Z,36.10
2023-04-07T16:54:17.608Z,36.30
2023-04-07T16:58:23.644Z,36.50
2023-04-07T17:02:27.782Z,36.60
2023-04-07T17:06:30.561Z,37.00
2023-04-07T17:10:33.088Z,37.40
2023-04-07T17:14:35.880Z,37.60
2023-04-07T17:18:38.673Z,38.10
2023-04-07T17:22:41.352Z,38.40
2023-04-07T17:26:46.529Z,38.50
2023-04-07T17:30:49.089Z,39.10
2023-04-07T17:34:52.057Z,39.10
2023-04-07T17:38:54.725Z,39.20
2023-04-07T17:42:57.536Z,39.70
2023-04-07T17:47:00.622Z,39.90
2023-04-07T17:51:07.535Z,39.90
2023-04-07T17:55:10.390Z,40.90
2023-04-07T17:59:12.954Z,40.70
2023-04-07T18:03:15.734Z,40.90
2023-04-07T18:07:18.480Z,40.90
2023-04-07T18:11:21.754Z,41.30
2023-04-07T18:15:24.273Z,41.50
2023-04-07T18:19:30.373Z,41.60
2023-04-07T18:23:33.987Z,41.50
2023-04-07T18:27:36.973Z,41.70
2023-04-07T18:31:40.410Z,41.70
2023-04-07T18:35:43.006Z,41.90
2023-04-07T18:39:45.769Z,42.20
2023-04-07T18:43:48.884Z,42.90
2023-04-07T18:47:51.716Z,42.70
2023-04-07T18:51:54.254Z,42.90
2023-04-07T18:55:57.150Z,43.60
2023-04-07T18:59:59.818Z,44.30
2023-04-07T19:04:03.070Z,43.80
2023-04-07T19:08:06.037Z,44.00
2023-04-07T19:12:09.698Z,44.60
2023-04-07T19:16:12.325Z,45.30
2023-04-07T19:20:14.936Z,45.80
2023-04-07T19:24:17.474Z,46.80
2023-04-07T19:28:20.378Z,46.90
2023-04-07T19:32:23.078Z,46.60
2023-04-07T19:36:26.509Z,46.40
2023-04-07T19:40:31.434Z,46.30
2023-04-07T19:44:35.169Z,46.20
2023-04-07T19:48:37.808Z,46.10
2023-04-07T19:52:43.214Z,46.10
2023-04-07T19:56:46.113Z,46.20
2023-04-07T20:00:50.840Z,46.30
2023-04-07T20:04:53.748Z,46.30
2023-04-07T20:08:56.278Z,46.40
2023-04-07T20:12:58.842Z,46.40
2023-04-07T20:17:01.835Z,46.60
2023-04-07T20:21:07.799Z,46.60
2023-04-07T20:25:10.744Z,46.60
2023-04-07T20:29:13.395Z,46.70
2023-04-07T20:33:16.304Z,46.60
2023-04-07T20:37:23.141Z,46.80
2023-04-07T23:23:11.005Z,64.30
